sensor_id;sensor_type;location;lat;lon;timestamp;P1;durP1;ratioP1;P2;durP2;ratioP2
60354;SDS011;46198;51.464;-0.066;2023-08-06T00:02:00;3.97;;;2.10;;
60354;SDS011;46198;51.464;-0.066;2023-08-06T00:04:28;2.88;;;2.50;;
60354;SDS011;46198;51.464;-0.066;2023-08-06T00:06:56;4.35;;;2.10;;
60354;SDS011;46198;51.464;-0.066;2023-08-06T00:09:26;6.07;;;2.20;;
60354;SDS011;46198;51.464;-0.066;2023-08-06T00:11:54;6.03;;;2.13;;
60354;SDS011;46198;51.464;-0.066;2023-08-06T00:14:22;4.53;;;2.78;;
60354;SDS011;46198;51.464;-0.066;2023-08-06T00:16:50;4.65;;;2.67;;
60354;SDS011;46198;51.464;-0.066;2023-08-06T00:19:18;4.82;;;2.42;;
60354;SDS011;46198;51.464;-0.066;2023-08-06T00:21:46;5.43;;;2.17;;
60354;SDS011;46198;51.464;-0.066;2023-08-06T00:24:15;5.05;;;2.80;;
60354;SDS011;46198;51.464;-0.066;2023-08-06T00:26:45;3.47;;;2.22;;
60354;SDS011;46198;51.464;-0.066;2023-08-06T00:29:13;5.82;;;2.35;;
60354;SDS011;46198;51.464;-0.066;2023-08-06T00:31:41;3.42;;;2.13;;
60354;SDS011;46198;51.464;-0.066;2023-08-06T00:34:09;3.63;;;2.58;;
60354;SDS011;46198;51.464;-0.066;2023-08-06T00:36:37;5.32;;;2.30;;
60354;SDS011;46198;51.464;-0.066;2023-08-06T00:39:06;4.47;;;2.28;;
60354;SDS011;46198;51.464;-0.066;2023-08-06T00:41:34;3.55;;;2.03;;
60354;SDS011;46198;51.464;-0.066;2023-08-06T00:44:04;3.65;;;2.38;;
60354;SDS011;46198;51.464;-0.066;2023-08-06T00:46:32;5.45;;;2.20;;
60354;SDS011;46198;51.464;-0.066;2023-08-06T00:49:01;5.82;;;2.28;;
60354;SDS011;46198;51.464;-0.066;2023-08-06T00:51:32;4.32;;;2.15;;
60354;SDS011;46198;51.464;-0.066;2023-08-06T00:54:03;3.95;;;2.00;;
60354;SDS011;46198;51.464;-0.066;2023-08-06T00:56:31;8.63;;;2.72;;
60354;SDS011;46198;51.464;-0.066;2023-08-06T00:59:03;7.00;;;2.25;;
60354;SDS011;46198;51.464;-0.066;2023-08-06T01:01:33;6.13;;;2.22;;
60354;SDS011;46198;51.464;-0.066;2023-08-06T01:04:01;2.67;;;1.90;;
60354;SDS011;46198;51.464;-0.066;2023-08-06T01:06:33;6.78;;;2.67;;
60354;SDS011;46198;51.464;-0.066;2023-08-06T01:09:14;6.50;;;2.30;;
60354;SDS011;46198;51.464;-0.066;2023-08-06T01:11:57;6.53;;;1.92;;
60354;SDS011;46198;51.464;-0.066;2023-08-06T01:14:36;6.55;;;2.55;;
60354;SDS011;46198;51.464;-0.066;2023-08-06T01:17:12;4.75;;;2.50;;
60354;SDS011;46198;51.464;-0.066;2023-08-06T01:19:42;4.07;;;2.08;;
60354;SDS011;46198;51.464;-0.066;2023-08-06T01:22:11;9.65;;;2.80;;
60354;SDS011;46198;51.464;-0.066;2023-08-06T01:24:39;5.00;;;2.55;;
60354;SDS011;46198;51.464;-0.066;2023-08-06T01:27:11;5.47;;;2.55;;
60354;SDS011;46198;51.464;-0.066;2023-08-06T01:29:46;6.57;;;3.10;;
60354;SDS011;46198;51.464;-0.066;2023-08-06T01:32:23;8.93;;;3.30;;
60354;SDS011;46198;51.464;-0.066;2023-08-06T01:34:52;8.75;;;2.83;;
60354;SDS011;46198;51.464;-0.066;2023-08-06T01:37:23;4.28;;;2.47;;
60354;SDS011;46198;51.464;-0.066;2023-08-06T01:39:52;5.53;;;2.78;;
60354;SDS011;46198;51.464;-0.066;2023-08-06T01:42:20;4.35;;;2.55;;
60354;SDS011;46198;51.464;-0.066;2023-08-06T01:44:48;7.95;;;2.70;;
60354;SDS011;46198;51.464;-0.066;2023-08-06T01:47:16;5.63;;;2.90;;
60354;SDS011;46198;51.464;-0.066;2023-08-06T01:49:44;4.38;;;2.63;;
60354;SDS011;46198;51.464;-0.066;2023-08-06T01:52:13;5.85;;;2.88;;
60354;SDS011;46198;51.464;-0.066;2023-08-06T01:54:42;8.75;;;3.40;;
60354;SDS011;46198;51.464;-0.066;2023-08-06T01:57:10;6.28;;;3.33;;
60354;SDS011;46198;51.464;-0.066;2023-08-06T01:59:38;4.95;;;3.30;;
60354;SDS011;46198;51.464;-0.066;2023-08-06T02:02:07;7.40;;;3.40;;
60354;SDS011;46198;51.464;-0.066;2023-08-06T02:04:35;10.13;;;3.60;;
60354;SDS011;46198;51.464;-0.066;2023-08-06T02:07:03;5.47;;;2.95;;
60354;SDS011;46198;51.464;-0.066;2023-08-06T02:09:32;5.97;;;2.92;;
60354;SDS011;46198;51.464;-0.066;2023-08-06T02:12:03;6.22;;;2.88;;
60354;SDS011;46198;51.464;-0.066;2023-08-06T02:14:32;8.45;;;3.25;;
60354;SDS011;46198;51.464;-0.066;2023-08-06T02:17:01;8.27;;;3.67;;
60354;SDS011;46198;51.464;-0.066;2023-08-06T02:19:29;12.05;;;3.35;;
60354;SDS011;46198;51.464;-0.066;2023-08-06T02:21:57;5.90;;;2.78;;
60354;SDS011;46198;51.464;-0.066;2023-08-06T02:24:25;6.47;;;3.10;;
60354;SDS011;46198;51.464;-0.066;2023-08-06T02:26:53;5.57;;;3.20;;
60354;SDS011;46198;51.464;-0.066;2023-08-06T02:29:24;6.32;;;3.80;;
60354;SDS011;46198;51.464;-0.066;2023-08-06T02:31:52;6.35;;;3.42;;
60354;SDS011;46198;51.464;-0.066;2023-08-06T02:34:21;6.10;;;3.10;;
60354;SDS011;46198;51.464;-0.066;2023-08-06T02:36:49;3.58;;;2.67;;
60354;SDS011;46198;51.464;-0.066;2023-08-06T02:39:18;9.10;;;2.90;;
60354;SDS011;46198;51.464;-0.066;2023-08-06T02:41:47;10.02;;;2.88;;
60354;SDS011;46198;51.464;-0.066;2023-08-06T02:44:16;5.63;;;2.75;;
60354;SDS011;46198;51.464;-0.066;2023-08-06T02:46:45;3.42;;;2.45;;
60354;SDS011;46198;51.464;-0.066;2023-08-06T02:49:13;8.43;;;2.63;;
60354;SDS011;46198;51.464;-0.066;2023-08-06T02:51:41;4.80;;;2.88;;
60354;SDS011;46198;51.464;-0.066;2023-08-06T02:54:13;7.88;;;2.60;;
60354;SDS011;46198;51.464;-0.066;2023-08-06T02:56:42;5.38;;;2.47;;
60354;SDS011;46198;51.464;-0.066;2023-08-06T02:59:17;5.00;;;2.83;;
60354;SDS011;46198;51.464;-0.066;2023-08-06T03:01:53;4.80;;;2.70;;
60354;SDS011;46198;51.464;-0.066;2023-08-06T03:04:29;5.38;;;2.50;;
60354;SDS011;46198;51.464;-0.066;2023-08-06T03:06:57;5.55;;;2.53;;
60354;SDS011;46198;51.464;-0.066;2023-08-06T03:09:34;7.00;;;2.63;;
60354;SDS011;46198;51.464;-0.066;2023-08-06T03:12:02;5.80;;;2.53;;
60354;SDS011;46198;51.464;-0.066;2023-08-06T03:14:32;5.05;;;2.92;;
60354;SDS011;46198;51.464;-0.066;2023-08-06T03:17:02;7.03;;;2.72;;
60354;SDS011;46198;51.464;-0.066;2023-08-06T03:19:31;7.45;;;3.25;;
60354;SDS011;46198;51.464;-0.066;2023-08-06T03:21:59;3.97;;;2.55;;
60354;SDS011;46198;51.464;-0.066;2023-08-06T03:24:28;5.55;;;2.65;;
60354;SDS011;46198;51.464;-0.066;2023-08-06T03:26:57;4.72;;;2.47;;
60354;SDS011;46198;51.464;-0.066;2023-08-06T03:29:25;6.38;;;3.15;;
60354;SDS011;46198;51.464;-0.066;2023-08-06T03:31:55;3.60;;;2.65;;
60354;SDS011;46198;51.464;-0.066;2023-08-06T03:34:25;4.07;;;2.75;;
60354;SDS011;46198;51.464;-0.066;2023-08-06T03:36:53;4.85;;;2.53;;
60354;SDS011;46198;51.464;-0.066;2023-08-06T03:39:21;6.03;;;2.58;;
60354;SDS011;46198;51.464;-0.066;2023-08-06T03:41:50;6.60;;;2.70;;
60354;SDS011;46198;51.464;-0.066;2023-08-06T03:44:20;7.25;;;2.88;;
60354;SDS011;46198;51.464;-0.066;2023-08-06T03:46:48;7.75;;;2.70;;
60354;SDS011;46198;51.464;-0.066;2023-08-06T03:49:16;5.32;;;2.70;;
60354;SDS011;46198;51.464;-0.066;2023-08-06T03:51:47;4.75;;;2.58;;
60354;SDS011;46198;51.464;-0.066;2023-08-06T03:54:15;3.88;;;2.63;;
60354;SDS011;46198;51.464;-0.066;2023-08-06T03:56:43;4.88;;;2.53;;
60354;SDS011;46198;51.464;-0.066;2023-08-06T03:59:11;5.30;;;2.63;;
60354;SDS011;46198;51.464;-0.066;2023-08-06T04:01:39;4.88;;;2.67;;
60354;SDS011;46198;51.464;-0.066;2023-08-06T04:04:07;6.07;;;3.13;;
60354;SDS011;46198;51.464;-0.066;2023-08-06T04:06:35;4.20;;;2.55;;
60354;SDS011;46198;51.464;-0.066;2023-08-06T04:09:05;5.43;;;2.63;;
60354;SDS011;46198;51.464;-0.066;2023-08-06T04:11:33;4.90;;;2.10;;
60354;SDS011;46198;51.464;-0.066;2023-08-06T04:14:02;4.95;;;2.45;;
60354;SDS011;46198;51.464;-0.066;2023-08-06T04:16:31;3.70;;;2.40;;
60354;SDS011;46198;51.464;-0.066;2023-08-06T04:18:59;5.63;;;2.63;;
60354;SDS011;46198;51.464;-0.066;2023-08-06T04:21:27;4.68;;;2.75;;
60354;SDS011;46198;51.464;-0.066;2023-08-06T04:23:55;4.50;;;3.00;;
60354;SDS011;46198;51.464;-0.066;2023-08-06T04:26:25;5.82;;;3.15;;
60354;SDS011;46198;51.464;-0.066;2023-08-06T04:28:53;7.60;;;2.60;;
60354;SDS011;46198;51.464;-0.066;2023-08-06T04:31:21;6.03;;;2.80;;
60354;SDS011;46198;51.464;-0.066;2023-08-06T04:33:50;4.55;;;2.72;;
60354;SDS011;46198;51.464;-0.066;2023-08-06T04:36:18;5.18;;;2.63;;
60354;SDS011;46198;51.464;-0.066;2023-08-06T04:38:47;7.88;;;4.03;;
60354;SDS011;46198;51.464;-0.066;2023-08-06T04:41:15;3.55;;;2.50;;
60354;SDS011;46198;51.464;-0.066;2023-08-06T04:43:46;7.82;;;2.70;;
60354;SDS011;46198;51.464;-0.066;2023-08-06T04:46:14;5.63;;;2.75;;
60354;SDS011;46198;51.464;-0.066;2023-08-06T04:48:42;6.72;;;2.65;;
60354;SDS011;46198;51.464;-0.066;2023-08-06T04:51:10;7.28;;;2.53;;
60354;SDS011;46198;51.464;-0.066;2023-08-06T04:53:38;6.60;;;3.53;;
60354;SDS011;46198;51.464;-0.066;2023-08-06T04:56:06;5.00;;;2.78;;
60354;SDS011;46198;51.464;-0.066;2023-08-06T04:58:35;5.72;;;3.72;;
60354;SDS011;46198;51.464;-0.066;2023-08-06T05:01:07;4.85;;;3.03;;
60354;SDS011;46198;51.464;-0.066;2023-08-06T05:03:35;5.97;;;2.58;;
60354;SDS011;46198;51.464;-0.066;2023-08-06T05:06:03;6.30;;;2.83;;
60354;SDS011;46198;51.464;-0.066;2023-08-06T05:08:31;8.05;;;2.75;;
60354;SDS011;46198;51.464;-0.066;2023-08-06T05:10:59;7.30;;;3.10;;
60354;SDS011;46198;51.464;-0.066;2023-08-06T05:13:27;6.57;;;2.95;;
60354;SDS011;46198;51.464;-0.066;2023-08-06T05:15:56;6.78;;;2.95;;
60354;SDS011;46198;51.464;-0.066;2023-08-06T05:18:25;9.15;;;3.42;;
60354;SDS011;46198;51.464;-0.066;2023-08-06T05:20:53;4.78;;;2.92;;
60354;SDS011;46198;51.464;-0.066;2023-08-06T05:23:21;10.15;;;3.05;;
60354;SDS011;46198;51.464;-0.066;2023-08-06T05:25:49;5.95;;;2.67;;
60354;SDS011;46198;51.464;-0.066;2023-08-06T05:28:17;6.53;;;3.60;;
60354;SDS011;46198;51.464;-0.066;2023-08-06T05:30:46;7.40;;;3.45;;
60354;SDS011;46198;51.464;-0.066;2023-08-06T05:33:14;5.10;;;2.85;;
60354;SDS011;46198;51.464;-0.066;2023-08-06T05:35:43;4.68;;;2.70;;
60354;SDS011;46198;51.464;-0.066;2023-08-06T05:38:12;4.75;;;3.08;;
60354;SDS011;46198;51.464;-0.066;2023-08-06T05:40:40;7.60;;;2.90;;
60354;SDS011;46198;51.464;-0.066;2023-08-06T05:43:08;5.80;;;2.75;;
60354;SDS011;46198;51.464;-0.066;2023-08-06T05:45:36;3.83;;;2.63;;
60354;SDS011;46198;51.464;-0.066;2023-08-06T05:48:04;5.60;;;3.08;;
60354;SDS011;46198;51.464;-0.066;2023-08-06T05:50:33;6.63;;;3.38;;
60354;SDS011;46198;51.464;-0.066;2023-08-06T05:53:02;9.13;;;3.47;;
60354;SDS011;46198;51.464;-0.066;2023-08-06T05:55:30;5.00;;;2.75;;
60354;SDS011;46198;51.464;-0.066;2023-08-06T05:57:59;7.10;;;2.75;;
60354;SDS011;46198;51.464;-0.066;2023-08-06T06:00:27;6.20;;;2.55;;
60354;SDS011;46198;51.464;-0.066;2023-08-06T06:02:55;6.40;;;2.92;;
60354;SDS011;46198;51.464;-0.066;2023-08-06T06:05:24;4.05;;;2.67;;
60354;SDS011;46198;51.464;-0.066;2023-08-06T06:07:52;5.32;;;2.63;;
60354;SDS011;46198;51.464;-0.066;2023-08-06T06:10:22;5.10;;;3.08;;
60354;SDS011;46198;51.464;-0.066;2023-08-06T06:12:50;4.93;;;3.08;;
60354;SDS011;46198;51.464;-0.066;2023-08-06T06:15:18;4.45;;;2.88;;
60354;SDS011;46198;51.464;-0.066;2023-08-06T06:17:46;3.65;;;2.85;;
60354;SDS011;46198;51.464;-0.066;2023-08-06T06:20:15;4.80;;;2.42;;
60354;SDS011;46198;51.464;-0.066;2023-08-06T06:22:43;6.57;;;2.85;;
60354;SDS011;46198;51.464;-0.066;2023-08-06T06:25:11;5.18;;;2.83;;
60354;SDS011;46198;51.464;-0.066;2023-08-06T06:27:41;4.28;;;2.85;;
60354;SDS011;46198;51.464;-0.066;2023-08-06T06:30:09;4.40;;;2.30;;
60354;SDS011;46198;51.464;-0.066;2023-08-06T06:32:38;5.68;;;2.88;;
60354;SDS011;46198;51.464;-0.066;2023-08-06T06:35:08;4.05;;;2.88;;
60354;SDS011;46198;51.464;-0.066;2023-08-06T06:37:36;5.22;;;2.83;;
60354;SDS011;46198;51.464;-0.066;2023-08-06T06:40:05;4.93;;;2.70;;
60354;SDS011;46198;51.464;-0.066;2023-08-06T06:42:34;5.45;;;2.40;;
60354;SDS011;46198;51.464;-0.066;2023-08-06T06:47:36;5.80;;;2.83;;
60354;SDS011;46198;51.464;-0.066;2023-08-06T06:50:04;5.30;;;2.72;;
60354;SDS011;46198;51.464;-0.066;2023-08-06T06:52:33;5.60;;;2.58;;
60354;SDS011;46198;51.464;-0.066;2023-08-06T06:55:02;3.35;;;2.58;;
60354;SDS011;46198;51.464;-0.066;2023-08-06T06:57:31;5.47;;;2.80;;
60354;SDS011;46198;51.464;-0.066;2023-08-06T06:59:59;4.28;;;2.35;;
60354;SDS011;46198;51.464;-0.066;2023-08-06T07:02:32;5.68;;;2.88;;
60354;SDS011;46198;51.464;-0.066;2023-08-06T07:05:00;5.70;;;2.80;;
60354;SDS011;46198;51.464;-0.066;2023-08-06T07:07:29;4.63;;;2.97;;
60354;SDS011;46198;51.464;-0.066;2023-08-06T07:09:57;5.47;;;2.80;;
60354;SDS011;46198;51.464;-0.066;2023-08-06T07:12:25;5.30;;;2.65;;
60354;SDS011;46198;51.464;-0.066;2023-08-06T07:14:53;4.60;;;2.65;;
60354;SDS011;46198;51.464;-0.066;2023-08-06T07:17:21;8.00;;;2.58;;
60354;SDS011;46198;51.464;-0.066;2023-08-06T07:19:51;4.78;;;2.47;;
60354;SDS011;46198;51.464;-0.066;2023-08-06T07:22:19;4.35;;;2.75;;
60354;SDS011;46198;51.464;-0.066;2023-08-06T07:24:48;4.68;;;2.35;;
60354;SDS011;46198;51.464;-0.066;2023-08-06T07:27:16;6.10;;;2.40;;
60354;SDS011;46198;51.464;-0.066;2023-08-06T07:29:45;5.57;;;2.33;;
60354;SDS011;46198;51.464;-0.066;2023-08-06T07:32:17;4.65;;;2.72;;
60354;SDS011;46198;51.464;-0.066;2023-08-06T07:34:45;4.95;;;2.63;;
60354;SDS011;46198;51.464;-0.066;2023-08-06T07:37:15;5.28;;;2.40;;
60354;SDS011;46198;51.464;-0.066;2023-08-06T07:39:43;3.88;;;2.08;;
60354;SDS011;46198;51.464;-0.066;2023-08-06T07:42:11;4.47;;;2.40;;
60354;SDS011;46198;51.464;-0.066;2023-08-06T07:44:39;5.50;;;2.10;;
60354;SDS011;46198;51.464;-0.066;2023-08-06T07:47:07;5.50;;;2.30;;
60354;SDS011;46198;51.464;-0.066;2023-08-06T07:49:36;4.38;;;2.22;;
60354;SDS011;46198;51.464;-0.066;2023-08-06T07:52:04;3.58;;;2.10;;
60354;SDS011;46198;51.464;-0.066;2023-08-06T07:54:35;5.25;;;2.35;;
60354;SDS011;46198;51.464;-0.066;2023-08-06T07:57:03;3.90;;;2.47;;
60354;SDS011;46198;51.464;-0.066;2023-08-06T07:59:32;4.18;;;2.42;;
60354;SDS011;46198;51.464;-0.066;2023-08-06T08:02:00;4.07;;;1.95;;
60354;SDS011;46198;51.464;-0.066;2023-08-06T08:04:28;4.55;;;1.95;;
60354;SDS011;46198;51.464;-0.066;2023-08-06T08:06:56;4.45;;;1.80;;
60354;SDS011;46198;51.464;-0.066;2023-08-06T08:09:25;4.95;;;2.10;;
60354;SDS011;46198;51.464;-0.066;2023-08-06T08:11:54;4.75;;;1.77;;
60354;SDS011;46198;51.464;-0.066;2023-08-06T08:14:26;4.03;;;2.40;;
60354;SDS011;46198;51.464;-0.066;2023-08-06T08:16:55;4.85;;;1.80;;
60354;SDS011;46198;51.464;-0.066;2023-08-06T08:19:23;3.22;;;1.90;;
60354;SDS011;46198;51.464;-0.066;2023-08-06T08:21:51;3.08;;;1.52;;
60354;SDS011;46198;51.464;-0.066;2023-08-06T08:24:21;1.95;;;1.65;;
60354;SDS011;46198;51.464;-0.066;2023-08-06T08:26:50;6.43;;;2.25;;
60354;SDS011;46198;51.464;-0.066;2023-08-06T08:29:20;3.03;;;1.80;;
60354;SDS011;46198;51.464;-0.066;2023-08-06T08:31:48;2.08;;;1.75;;
60354;SDS011;46198;51.464;-0.066;2023-08-06T08:34:17;2.60;;;2.00;;
60354;SDS011;46198;51.464;-0.066;2023-08-06T08:36:45;2.55;;;1.70;;
60354;SDS011;46198;51.464;-0.066;2023-08-06T08:39:14;4.22;;;1.77;;
60354;SDS011;46198;51.464;-0.066;2023-08-06T08:41:42;4.22;;;2.20;;
60354;SDS011;46198;51.464;-0.066;2023-08-06T08:44:10;2.60;;;1.52;;
60354;SDS011;46198;51.464;-0.066;2023-08-06T08:46:42;2.15;;;1.95;;
60354;SDS011;46198;51.464;-0.066;2023-08-06T08:49:11;4.95;;;1.70;;
60354;SDS011;46198;51.464;-0.066;2023-08-06T08:51:40;3.08;;;1.88;;
60354;SDS011;46198;51.464;-0.066;2023-08-06T08:54:08;2.60;;;1.60;;
60354;SDS011;46198;51.464;-0.066;2023-08-06T08:56:38;2.03;;;1.60;;
60354;SDS011;46198;51.464;-0.066;2023-08-06T08:59:06;2.90;;;1.65;;
60354;SDS011;46198;51.464;-0.066;2023-08-06T09:01:34;2.92;;;2.03;;
60354;SDS011;46198;51.464;-0.066;2023-08-06T09:04:06;3.10;;;1.42;;
60354;SDS011;46198;51.464;-0.066;2023-08-06T09:06:36;3.00;;;1.80;;
60354;SDS011;46198;51.464;-0.066;2023-08-06T09:11:37;3.35;;;1.70;;
60354;SDS011;46198;51.464;-0.066;2023-08-06T09:14:10;3.58;;;1.67;;
60354;SDS011;46198;51.464;-0.066;2023-08-06T09:16:39;3.05;;;1.70;;
60354;SDS011;46198;51.464;-0.066;2023-08-06T09:19:09;3.17;;;2.00;;
60354;SDS011;46198;51.464;-0.066;2023-08-06T09:21:39;4.45;;;2.03;;
60354;SDS011;46198;51.464;-0.066;2023-08-06T09:24:08;1.70;;;1.55;;
60354;SDS011;46198;51.464;-0.066;2023-08-06T09:26:37;2.50;;;1.60;;
60354;SDS011;46198;51.464;-0.066;2023-08-06T09:29:05;3.58;;;1.70;;
60354;SDS011;46198;51.464;-0.066;2023-08-06T09:31:39;1.90;;;1.45;;
60354;SDS011;46198;51.464;-0.066;2023-08-06T09:34:14;4.43;;;1.67;;
60354;SDS011;46198;51.464;-0.066;2023-08-06T09:36:43;3.38;;;1.80;;
60354;SDS011;46198;51.464;-0.066;2023-08-06T09:39:14;1.75;;;1.50;;
60354;SDS011;46198;51.464;-0.066;2023-08-06T09:41:43;2.15;;;1.80;;
60354;SDS011;46198;51.464;-0.066;2023-08-06T09:44:18;2.83;;;1.70;;
60354;SDS011;46198;51.464;-0.066;2023-08-06T09:46:48;3.58;;;1.50;;
60354;SDS011;46198;51.464;-0.066;2023-08-06T09:49:18;1.75;;;1.52;;
60354;SDS011;46198;51.464;-0.066;2023-08-06T09:51:50;4.32;;;1.60;;
60354;SDS011;46198;51.464;-0.066;2023-08-06T09:54:23;2.25;;;1.67;;
60354;SDS011;46198;51.464;-0.066;2023-08-06T09:56:54;2.00;;;1.55;;
60354;SDS011;46198;51.464;-0.066;2023-08-06T09:59:23;2.75;;;1.35;;
60354;SDS011;46198;51.464;-0.066;2023-08-06T10:01:51;3.13;;;1.70;;
60354;SDS011;46198;51.464;-0.066;2023-08-06T10:04:24;3.58;;;1.63;;
60354;SDS011;46198;51.464;-0.066;2023-08-06T10:07:04;2.55;;;1.75;;
60354;SDS011;46198;51.464;-0.066;2023-08-06T10:09:32;4.45;;;1.90;;
60354;SDS011;46198;51.464;-0.066;2023-08-06T10:12:00;3.10;;;2.15;;
60354;SDS011;46198;51.464;-0.066;2023-08-06T10:14:30;2.88;;;1.40;;
60354;SDS011;46198;51.464;-0.066;2023-08-06T10:17:01;2.63;;;1.60;;
60354;SDS011;46198;51.464;-0.066;2023-08-06T10:19:32;2.90;;;1.42;;
60354;SDS011;46198;51.464;-0.066;2023-08-06T10:22:08;4.47;;;2.08;;
60354;SDS011;46198;51.464;-0.066;2023-08-06T10:24:49;2.78;;;1.65;;
60354;SDS011;46198;51.464;-0.066;2023-08-06T10:27:19;3.90;;;1.55;;
60354;SDS011;46198;51.464;-0.066;2023-08-06T10:32:17;2.90;;;1.63;;
60354;SDS011;46198;51.464;-0.066;2023-08-06T10:34:54;5.05;;;1.77;;
60354;SDS011;46198;51.464;-0.066;2023-08-06T10:37:24;3.10;;;1.58;;
60354;SDS011;46198;51.464;-0.066;2023-08-06T10:40:06;3.92;;;1.95;;
60354;SDS011;46198;51.464;-0.066;2023-08-06T10:42:35;3.42;;;2.15;;
60354;SDS011;46198;51.464;-0.066;2023-08-06T10:45:16;3.53;;;2.15;;
60354;SDS011;46198;51.464;-0.066;2023-08-06T10:47:45;3.50;;;1.92;;
60354;SDS011;46198;51.464;-0.066;2023-08-06T10:50:15;4.45;;;1.80;;
60354;SDS011;46198;51.464;-0.066;2023-08-06T10:52:45;2.85;;;2.05;;
60354;SDS011;46198;51.464;-0.066;2023-08-06T10:55:13;2.85;;;2.25;;
60354;SDS011;46198;51.464;-0.066;2023-08-06T10:57:42;4.65;;;2.28;;
60354;SDS011;46198;51.464;-0.066;2023-08-06T11:00:10;3.08;;;1.95;;
60354;SDS011;46198;51.464;-0.066;2023-08-06T11:02:42;3.25;;;2.13;;
60354;SDS011;46198;51.464;-0.066;2023-08-06T11:05:11;2.72;;;1.70;;
60354;SDS011;46198;51.464;-0.066;2023-08-06T11:07:41;3.38;;;1.90;;
60354;SDS011;46198;51.464;-0.066;2023-08-06T11:10:10;6.83;;;1.77;;
60354;SDS011;46198;51.464;-0.066;2023-08-06T11:12:39;2.92;;;2.10;;
60354;SDS011;46198;51.464;-0.066;2023-08-06T11:15:08;3.67;;;1.80;;
60354;SDS011;46198;51.464;-0.066;2023-08-06T11:17:39;6.93;;;2.58;;
60354;SDS011;46198;51.464;-0.066;2023-08-06T11:20:09;7.18;;;2.30;;
60354;SDS011;46198;51.464;-0.066;2023-08-06T11:22:37;3.28;;;1.90;;
60354;SDS011;46198;51.464;-0.066;2023-08-06T11:25:08;4.18;;;2.05;;
60354;SDS011;46198;51.464;-0.066;2023-08-06T11:27:36;2.53;;;2.08;;
60354;SDS011;46198;51.464;-0.066;2023-08-06T11:30:04;2.67;;;1.80;;
60354;SDS011;46198;51.464;-0.066;2023-08-06T11:32:33;5.43;;;2.70;;
60354;SDS011;46198;51.464;-0.066;2023-08-06T11:35:13;3.42;;;1.92;;
60354;SDS011;46198;51.464;-0.066;2023-08-06T11:37:43;4.85;;;2.50;;
60354;SDS011;46198;51.464;-0.066;2023-08-06T11:40:15;4.05;;;2.33;;
60354;SDS011;46198;51.464;-0.066;2023-08-06T11:45:14;3.05;;;1.98;;
60354;SDS011;46198;51.464;-0.066;2023-08-06T11:47:42;5.50;;;2.00;;
60354;SDS011;46198;51.464;-0.066;2023-08-06T11:50:24;5.93;;;2.03;;
60354;SDS011;46198;51.464;-0.066;2023-08-06T11:52:54;4.13;;;2.03;;
60354;SDS011;46198;51.464;-0.066;2023-08-06T11:55:26;3.08;;;2.25;;
60354;SDS011;46198;51.464;-0.066;2023-08-06T11:57:56;3.30;;;1.95;;
60354;SDS011;46198;51.464;-0.066;2023-08-06T12:00:25;3.55;;;1.98;;
60354;SDS011;46198;51.464;-0.066;2023-08-06T12:02:54;3.65;;;1.83;;
60354;SDS011;46198;51.464;-0.066;2023-08-06T12:05:24;3.80;;;2.10;;
60354;SDS011;46198;51.464;-0.066;2023-08-06T12:07:58;3.10;;;2.35;;
60354;SDS011;46198;51.464;-0.066;2023-08-06T12:10:29;3.25;;;1.77;;
60354;SDS011;46198;51.464;-0.066;2023-08-06T12:12:58;4.18;;;1.80;;
60354;SDS011;46198;51.464;-0.066;2023-08-06T12:15:27;3.35;;;1.88;;
60354;SDS011;46198;51.464;-0.066;2023-08-06T12:17:59;3.92;;;1.90;;
60354;SDS011;46198;51.464;-0.066;2023-08-06T12:20:27;3.88;;;1.92;;
60354;SDS011;46198;51.464;-0.066;2023-08-06T12:22:55;2.42;;;1.90;;
60354;SDS011;46198;51.464;-0.066;2023-08-06T12:25:23;3.72;;;1.90;;
60354;SDS011;46198;51.464;-0.066;2023-08-06T12:27:53;4.00;;;1.92;;
60354;SDS011;46198;51.464;-0.066;2023-08-06T12:30:21;4.88;;;2.30;;
60354;SDS011;46198;51.464;-0.066;2023-08-06T12:32:49;3.22;;;1.60;;
60354;SDS011;46198;51.464;-0.066;2023-08-06T12:35:18;2.83;;;1.90;;
60354;SDS011;46198;51.464;-0.066;2023-08-06T12:37:47;3.42;;;1.70;;
60354;SDS011;46198;51.464;-0.066;2023-08-06T12:40:15;3.30;;;2.10;;
60354;SDS011;46198;51.464;-0.066;2023-08-06T12:43:03;3.38;;;2.17;;
60354;SDS011;46198;51.464;-0.066;2023-08-06T12:45:34;2.50;;;1.88;;
60354;SDS011;46198;51.464;-0.066;2023-08-06T12:48:03;2.80;;;2.20;;
60354;SDS011;46198;51.464;-0.066;2023-08-06T12:50:31;3.97;;;1.90;;
60354;SDS011;46198;51.464;-0.066;2023-08-06T12:53:01;2.50;;;2.00;;
60354;SDS011;46198;51.464;-0.066;2023-08-06T12:55:31;3.53;;;2.30;;
60354;SDS011;46198;51.464;-0.066;2023-08-06T12:57:59;4.32;;;1.90;;
60354;SDS011;46198;51.464;-0.066;2023-08-06T13:00:29;3.03;;;1.80;;
60354;SDS011;46198;51.464;-0.066;2023-08-06T13:02:57;4.30;;;2.23;;
60354;SDS011;46198;51.464;-0.066;2023-08-06T13:05:26;3.40;;;2.40;;
60354;SDS011;46198;51.464;-0.066;2023-08-06T13:07:54;2.40;;;1.70;;
60354;SDS011;46198;51.464;-0.066;2023-08-06T13:10:22;4.10;;;2.22;;
60354;SDS011;46198;51.464;-0.066;2023-08-06T13:12:51;3.83;;;2.20;;
60354;SDS011;46198;51.464;-0.066;2023-08-06T13:15:19;6.20;;;2.85;;
60354;SDS011;46198;51.464;-0.066;2023-08-06T13:17:50;5.03;;;3.10;;
60354;SDS011;46198;51.464;-0.066;2023-08-06T13:20:18;3.33;;;2.27;;
60354;SDS011;46198;51.464;-0.066;2023-08-06T13:22:47;5.38;;;2.35;;
60354;SDS011;46198;51.464;-0.066;2023-08-06T13:25:17;3.05;;;2.30;;
60354;SDS011;46198;51.464;-0.066;2023-08-06T13:27:46;3.63;;;2.25;;
60354;SDS011;46198;51.464;-0.066;2023-08-06T13:30:15;5.00;;;2.42;;
60354;SDS011;46198;51.464;-0.066;2023-08-06T13:32:44;3.03;;;2.17;;
60354;SDS011;46198;51.464;-0.066;2023-08-06T13:35:14;2.38;;;1.77;;
60354;SDS011;46198;51.464;-0.066;2023-08-06T13:37:42;3.78;;;1.88;;
60354;SDS011;46198;51.464;-0.066;2023-08-06T13:40:11;6.60;;;2.97;;
60354;SDS011;46198;51.464;-0.066;2023-08-06T13:42:39;1.83;;;1.60;;
60354;SDS011;46198;51.464;-0.066;2023-08-06T13:45:07;4.30;;;2.35;;
60354;SDS011;46198;51.464;-0.066;2023-08-06T13:50:06;3.28;;;2.17;;
60354;SDS011;46198;51.464;-0.066;2023-08-06T13:52:37;2.75;;;1.80;;
60354;SDS011;46198;51.464;-0.066;2023-08-06T13:55:05;3.17;;;1.70;;
60354;SDS011;46198;51.464;-0.066;2023-08-06T13:57:34;1.50;;;1.40;;
60354;SDS011;46198;51.464;-0.066;2023-08-06T14:00:03;3.00;;;2.10;;
60354;SDS011;46198;51.464;-0.066;2023-08-06T14:02:41;2.60;;;1.70;;
60354;SDS011;46198;51.464;-0.066;2023-08-06T14:05:10;2.38;;;2.00;;
60354;SDS011;46198;51.464;-0.066;2023-08-06T14:07:40;5.63;;;2.38;;
60354;SDS011;46198;51.464;-0.066;2023-08-06T14:10:08;2.03;;;1.58;;
60354;SDS011;46198;51.464;-0.066;2023-08-06T14:12:36;2.15;;;1.55;;
60354;SDS011;46198;51.464;-0.066;2023-08-06T14:15:05;2.90;;;1.33;;
60354;SDS011;46198;51.464;-0.066;2023-08-06T14:17:33;2.78;;;1.60;;
60354;SDS011;46198;51.464;-0.066;2023-08-06T14:20:02;2.95;;;1.98;;
60354;SDS011;46198;51.464;-0.066;2023-08-06T14:22:34;5.47;;;1.90;;
60354;SDS011;46198;51.464;-0.066;2023-08-06T14:25:04;3.45;;;2.05;;
60354;SDS011;46198;51.464;-0.066;2023-08-06T14:27:33;1.77;;;1.30;;
60354;SDS011;46198;51.464;-0.066;2023-08-06T14:30:04;2.42;;;1.60;;
60354;SDS011;46198;51.464;-0.066;2023-08-06T14:32:33;2.65;;;1.45;;
60354;SDS011;46198;51.464;-0.066;2023-08-06T14:35:02;1.50;;;1.40;;
60354;SDS011;46198;51.464;-0.066;2023-08-06T14:37:30;3.65;;;2.15;;
60354;SDS011;46198;51.464;-0.066;2023-08-06T14:39:58;1.48;;;1.38;;
60354;SDS011;46198;51.464;-0.066;2023-08-06T14:42:28;4.07;;;2.30;;
60354;SDS011;46198;51.464;-0.066;2023-08-06T14:44:56;3.20;;;1.60;;
60354;SDS011;46198;51.464;-0.066;2023-08-06T14:47:24;4.82;;;1.75;;
60354;SDS011;46198;51.464;-0.066;2023-08-06T14:49:53;4.43;;;1.38;;
60354;SDS011;46198;51.464;-0.066;2023-08-06T14:52:21;3.80;;;1.63;;
60354;SDS011;46198;51.464;-0.066;2023-08-06T14:54:49;3.13;;;2.03;;
60354;SDS011;46198;51.464;-0.066;2023-08-06T14:57:18;1.40;;;1.10;;
60354;SDS011;46198;51.464;-0.066;2023-08-06T14:59:49;2.28;;;2.03;;